หน้าหลัก
METAR-TAF:

METAR-TAF

ท่าอากาศยาน :

Yekaterinburg, รัสเซีย

ละติจูด: 56-50N, ลองจิจูด: 060-38E, ความสูง: 237 ม.

การสังเกตสภาพอากาศปัจจุบัน

รายงานได้ทำขึ้นเมื่อ 25 นาทีที่แล้ว ณ เวลา 03:30 UTC
ลม 10 นอตจากตะวันตก/ตะวันตกเฉียงเหนือ, แปรผันระหว่างตะวันตก และเหนือ/ตะวันตกเฉียงเหนือ
อุณหภูมิ 5°C
ความชื้น 38%
ความกดอากาศ 1025 hPa
ทัศนวิสัย 10 กม. หรือมากกว่า
ไม่มีเมฆต่ำกว่า 1,500 ม. และไม่มีเมฆคิวมูโลนิมบัส

METAR: USSS 240330Z 30005MPS 270V340 CAVOK 05/M08 Q1025 R26R/010060 R26L/010060 NOSIG RMK QFE748/0998

เวลา: 08:55 (03:55 UTC)

การพยากรณ์

รายงานได้ทำขึ้นเมื่อ 2 ชั่วโมงและ 15 นาทีที่แล้ว ณ เวลา 01:40 UTC
การพยากรณ์มีผลตั้งแต่วันที่ 24 ณ เวลา 03 UTC จนถึงวันที่ 25 ณ เวลา 03 UTC
ลม 6 นอตจากตะวันตกเฉียงเหนือโดยมีลมกระโชกได้ถึง27 นอต
ทัศนวิสัย 10 กม. หรือมากกว่า
มีเมฆเป็นส่วนมากเว้นเป็นระยะที่ความสูง 4000 ฟุต
กำลังกลายเป็น
ตั้งแต่วันที่ 24 ณ เวลา 21 UTC จนถึงวันที่ 24 ณ เวลา 23 UTC
ลม 6 นอตจากตะวันตกเฉียงใต้โดยมีลมกระโชกได้ถึง16 นอต

TAF: USSS 240140Z 2403/2503 32003G14MPS 9999 BKN040 BECMG 2421/2423 22003G08MPS

สังเกตการณ์สภาพอากาศและพยากรณ์อากาศของสนามบินมากกว่า 4000 แห่ง (รายงาน METAR และ TAF).

สถานีที่ดูได้จะแสดงไว้ด้วยจุดสีเหลืองและสีแดงบนแผนที่.

เลื่อนเมาส์ไปเหนือจุดเพื่อดูชื่อสถานี.

แล้วคลิกเพื่อดูสังเกตการณ์และการพยากรณ์สภาพอากาศ.

ในการเปลี่ยนแผนที่: คลิกที่ปุ่มสีเขียวที่มีกากบาทสีดำเพื่อซูมเข้า; ที่ปุ่มสีเขียวที่มีขีดเพื่อซูมออก; หรือที่ลูกศรสีเขียวเพื่อไปยังแผนที่ที่อยู่ติดกัน.


METAR-TAF: